Aérodrome :
LOGIN :

S'inscrire | Disclaimer

   EN    FR    IT 

 










Légende :    VFR   VFR Marginal   IFR   IFR Intensif   IFR Très Intensif
Visi : 
Plafond : 
>= 8 km
>= 3000ft
5 à 8 km
1000 à 3000 ft
1500m à 5 km
500 à 1000 ft
800 à 1500m
200 à 500 ft
< 800m
< 200 ft
Symboles :   Orages  Brouillard  Fortes neiges  Fortes précipitations  Vent > 20 kt
SIGMETs :   Divers  Orages  Givrage  Turbulence  Onde Orograph.  Cendres Volcan.







- Altitude de l'aérodrome : 896 ft


LOAN - Wiener Neustadt East

DERNIER METAR :
  • 141500Z 24008KT 30KM FEW025CU BKN100AC

METARs EXPIRÉS :
  • 141400Z 24006KT 20KM -RA FEW025CU BKN060SC
  • 141300Z 24006KT 15KM -RA FEW025CU BKN060SC
  • 141200Z 25004KT 15KM -RA FEW025CU BKN060SC

TAF TAF LOAN
Valide du 14 à 12h jusqu'au 14 à 21h UTC


141125Z 1412/1421 28008KT 9999 FEW050 BKN070
TEMPO 1412/1418 31015G25KT SHRA BKN040 SCT050TCU
Pas de NOTAMs connus pour ce terrain.



MET'MAP, la Météo Aéronautique d'un coup d'oeil ! - Copyright ORBIFLY Décembre 2007 - Disclaimer

ORBIFLY MET'MAP TEAM :

Programmation & Développement : Alexandra Zaïnal
Conception & Développement : Baudouin d'Aumeries
Co-Programmation & Développement : Marc-Olivier Méhu
Soutien technique & logistique : Manuel Goepfert

Contact : metmap@orbifly.com




SOURCES & CREDITS :

   NOAA